FW6790 Weather Reports


Display with metric or nautical units.
time (UTC)temp
F
wind
direction
speed
MPH
gust
MPH
rain 1hr
in
rain 24hr
in
rain mn
in
humidity
%
barometer
mb
20260504220707 78 138 2.0 5.0 0.00 0.00 0.00 37 1012.5
20260504220207 78 112 2.0 7.0 0.00 0.00 0.00 37 1012.6
20260504215929 78 142 2.0 7.0 0.00 0.00 0.00 37 1012.7
20260504215707 78 142 2.0 7.0 0.00 0.00 0.00 37 1012.7
20260504215207 78 182 3.0 7.0 0.00 0.00 0.00 38 1012.7
20260504214705 78 355 3.0 7.0 0.00 0.00 0.00 37 1012.7
20260504214205 78 326 2.0 7.0 0.00 0.00 0.00 37 1012.8
20260504213701 78 262 2.0 8.0 0.00 0.00 0.00 41 1012.9
20260504213201 78 126 2.0 8.0 0.00 0.00 0.00 39 1012.9
20260504212700 78 21 2.0 6.0 0.00 0.00 0.00 38 1012.8
20260504212201 78 299 1.0 5.0 0.00 0.00 0.00 42 1012.8
20260504211701 78 119 1.0 4.0 0.00 0.00 0.00 41 1012.9
20260504211201 78 340 1.0 4.0 0.00 0.00 0.00 40 1012.9
20260504210934 78 190 1.0 5.0 0.00 0.00 0.00 40 1012.8
20260504210701 78 190 1.0 5.0 0.00 0.00 0.00 40 1012.8
20260504210201 78 136 2.0 6.0 0.00 0.00 0.00 41 1012.9
20260504205701 78 138 2.0 6.0 0.00 0.00 0.00 39 1012.8
20260504205201 78 105 2.0 6.0 0.00 0.00 0.00 39 1012.9
20260504204700 78 115 2.0 5.0 0.00 0.00 0.00 40 1012.8
20260504204201 78 111 1.0 5.0 0.00 0.00 0.00 40 1012.8
20260504203701 78 174 1.0 5.0 0.00 0.00 0.00 40 1012.9
20260504203426 78 135 1.0 5.0 0.00 0.00 0.00 39 1013.0
20260504203303 78 135 1.0 5.0 0.00 0.00 0.00 39 1013.0
20260504202657 77 150 2.0 6.0 0.00 0.00 0.00 42 1013.0
20260504202157 77 0 3.0 6.0 0.00 0.00 0.00 37 1013.1
20260504201657 77 207 2.0 8.0 0.00 0.00 0.00 36 1013.2
20260504201157 77 298 2.0 8.0 0.00 0.00 0.00 36 1013.2
20260504200656 77 219 2.0 6.0 0.00 0.00 0.00 37 1013.2
20260504200155 77 108 2.0 6.0 0.00 0.00 0.00 35 1013.4
20260504195654 77 154 2.0 6.0 0.00 0.00 0.00 39 1013.4
20260504195155 77 129 1.0 6.0 0.00 0.00 0.00 38 1013.4
20260504194654 77 115 1.0 4.0 0.00 0.00 0.00 41 1013.5
20260504194149 76 188 2.0 6.0 0.00 0.00 0.00 42 1013.7
20260504193919 76 196 3.0 6.0 0.00 0.00 0.00 41 1013.7
20260504193646 76 196 3.0 6.0 0.00 0.00 0.00 41 1013.7
20260504193136 76 211 3.0 9.0 0.00 0.00 0.00 46 1013.8
20260504192905 76 355 2.0 9.0 0.00 0.00 0.00 40 1013.9
20260504192734 76 355 2.0 9.0 0.00 0.00 0.00 40 1013.9
20260504192124 76 175 2.0 5.0 0.00 0.00 0.00 41 1013.9
20260504191857 76 168 1.0 5.0 0.00 0.00 0.00 44 1014.0
20260504191618 76 168 1.0 5.0 0.00 0.00 0.00 44 1014.0
20260504191329 76 123 1.0 5.0 0.00 0.00 0.00 45 1014.0
20260504191216 76 123 1.0 5.0 0.00 0.00 0.00 45 1014.0
20260504190606 76 331 2.0 5.0 0.00 0.00 0.00 42 1014.1
20260504190100 76 138 2.0 5.0 0.00 0.00 0.00 40 1014.1
20260504185554 76 188 2.0 6.0 0.00 0.00 0.00 43 1014.2
20260504185048 76 167 2.0 6.0 0.00 0.00 0.00 40 1014.3
20260504184928 76 308 2.0 5.0 0.00 0.00 0.00 42 1014.4
20260504184036 75 12 1.0 4.0 0.00 0.00 0.00 42 1014.5
20260504183530 76 130 2.0 4.0 0.00 0.00 0.00 42 1014.6
20260504183024 76 137 3.0 9.0 0.00 0.00 0.00 44 1014.6
20260504182518 76 13 2.0 9.0 0.00 0.00 0.00 43 1014.6
20260504182231 76 287 2.0 5.0 0.00 0.00 0.00 44 1014.7
20260504181507 76 321 2.0 6.0 0.00 0.00 0.00 43 1014.9
20260504181000 76 69 2.0 7.0 0.00 0.00 0.00 45 1014.8
20260504180837 75 355 2.0 7.0 0.00 0.00 0.00 45 1014.9
20260504180212 75 153 2.0 4.0 0.00 0.00 0.00 47 1015.0
20260504180053 75 153 2.0 4.0 0.00 0.00 0.00 47 1015.0
20260504175708 75 227 2.0 6.0 0.00 0.00 0.00 45 1014.9
20260504175441 75 227 2.0 6.0 0.00 0.00 0.00 45 1014.9
20260504174936 75 154 3.0 8.0 0.00 0.00 0.00 43 1015.0
20260504174431 75 342 2.0 8.0 0.00 0.00 0.00 42 1015.1
20260504173925 74 134 2.0 5.0 0.00 0.00 0.00 47 1015.1
20260504173418 74 186 2.0 5.0 0.00 0.00 0.00 48 1015.2
20260504172913 74 315 2.0 7.0 0.00 0.00 0.00 46 1015.3
20260504172406 74 148 2.0 7.0 0.00 0.00 0.00 47 1015.3
20260504171900 74 165 2.0 6.0 0.00 0.00 0.00 47 1015.5
20260504171354 73 24 3.0 8.0 0.00 0.00 0.00 46 1015.5
20260504170849 73 349 2.0 8.0 0.00 0.00 0.00 47 1015.6
20260504170342 73 31 2.0 8.0 0.00 0.00 0.00 46 1015.7
20260504160314 71 337 3.0 7.0 0.00 0.00 0.00 49 1016.4
20260504150811 67 341 2.0 6.0 0.00 0.00 0.00 58 1016.2
20260504150535 67 304 2.0 6.0 0.00 0.00 0.00 57 1016.3
20260504150310 67 304 2.0 6.0 0.00 0.00 0.00 57 1016.3
20260504141310 62 123 1.0 5.0 0.00 0.00 0.00 68 1016.5
20260504141033 62 176 1.0 5.0 0.00 0.00 0.00 68 1016.6
20260504140914 62 176 1.0 5.0 0.00 0.00 0.00 68 1016.6
20260504140534 61 215 1.0 4.0 0.00 0.00 0.00 72 1016.6
20260504140414 61 215 1.0 4.0 0.00 0.00 0.00 72 1016.6
20260504130215 53 40 1.0 3.0 0.00 0.00 0.00 90 1016.9
20260504120113 46 355 0.0 1.0 0.00 0.00 0.00 94 1016.4
20260504110457 44 253 0.0 1.0 0.00 0.00 0.00 92 1015.9
20260504100415 44 346 0.0 0.0 0.00 0.00 0.00 90 1016.1
20260504081845 46 282 0.0 0.0 0.00 0.00 0.00 88 1015.9
20260504081345 46 282 0.0 0.0 0.00 0.00 0.00 88 1015.9
20260504081109 46 282 0.0 0.0 0.00 0.00 0.00 88 1016.0
20260504080950 46 282 0.0 0.0 0.00 0.00 0.00 88 1016.0
20260504080611 46 282 0.0 0.0 0.00 0.00 0.00 88 1016.0
20260504080449 46 282 0.0 0.0 0.00 0.00 0.00 88 1016.0
20260504070333 46 282 0.0 0.0 0.00 0.00 0.00 87 1016.2
20260504060237 47 282 0.0 0.0 0.00 0.00 0.00 85 1016.6
20260504050730 48 261 0.0 0.0 0.00 0.00 0.00 83 1017.3
20260504050454 48 261 0.0 0.0 0.00 0.00 0.00 83 1017.4
20260504050230 48 261 0.0 0.0 0.00 0.00 0.00 83 1017.4
20260504045954 48 261 0.0 0.0 0.00 0.00 0.00 83 1017.3
20260504045227 48 261 0.0 0.0 0.00 0.00 0.00 83 1017.1
20260504044725 48 261 0.0 0.0 0.00 0.00 0.00 83 1017.1
20260504044224 48 261 0.0 0.0 0.00 0.00 0.00 83 1017.1
20260504043723 49 261 0.0 0.0 0.00 0.00 0.00 82 1017.3
20260504043216 49 259 0.0 0.0 0.00 0.00 0.00 81 1017.3
20260504042709 49 259 0.0 0.0 0.00 0.00 0.00 80 1017.3
20260504042426 49 259 0.0 0.0 0.00 0.00 0.00 80 1017.4
20260504042307 49 259 0.0 0.0 0.00 0.00 0.00 80 1017.4
20260504041657 49 259 0.0 0.0 0.00 0.00 0.00 79 1017.4
20260504041151 49 259 0.0 0.0 0.00 0.00 0.00 79 1017.4
20260504040902 49 259 0.0 0.0 0.00 0.00 0.00 80 1017.4
20260504040750 49 259 0.0 0.0 0.00 0.00 0.00 80 1017.4
20260504040138 49 259 0.0 0.0 0.00 0.00 0.00 79 1017.4
20260504035633 49 259 0.0 0.0 0.00 0.00 0.00 78 1017.5
20260504035356 50 259 0.0 0.0 0.00 0.00 0.00 78 1017.6
20260504035127 50 259 0.0 0.0 0.00 0.00 0.00 78 1017.6
20260504034620 50 259 0.0 0.0 0.00 0.00 0.00 78 1017.7
20260504034346 50 259 0.0 0.0 0.00 0.00 0.00 78 1017.8
20260504033608 50 259 0.0 0.0 0.00 0.00 0.00 78 1017.8
20260504033103 50 259 0.0 0.0 0.00 0.00 0.00 78 1017.8
20260504032557 51 259 0.0 0.0 0.00 0.00 0.00 76 1017.8
20260504032314 51 259 0.0 0.0 0.00 0.00 0.00 76 1017.8
20260504032051 51 259 0.0 0.0 0.00 0.00 0.00 76 1017.8
20260504031545 51 259 0.0 0.0 0.00 0.00 0.00 76 1017.8
20260504031039 51 259 0.0 0.0 0.00 0.00 0.00 75 1017.8
20260504030533 51 259 0.0 0.0 0.00 0.00 0.00 75 1017.8
20260504030027 51 259 0.0 0.0 0.00 0.00 0.00 74 1017.8
20260504025520 52 259 0.0 0.0 0.00 0.00 0.00 74 1017.8
20260504025015 52 259 0.0 0.0 0.00 0.00 0.00 73 1017.6
20260504024509 52 259 0.0 0.0 0.00 0.00 0.00 73 1017.5
20260504024234 52 259 0.0 0.0 0.00 0.00 0.00 72 1017.5
20260504024003 52 259 0.0 0.0 0.00 0.00 0.00 72 1017.5
20260504023458 53 259 0.0 0.0 0.00 0.00 0.00 71 1017.5
20260504022951 53 259 0.0 0.0 0.00 0.00 0.00 71 1017.4
20260504022445 53 259 0.0 0.0 0.00 0.00 0.00 70 1017.5
20260504021939 53 259 0.0 0.0 0.00 0.00 0.00 70 1017.4
20260504021434 53 259 0.0 0.0 0.00 0.00 0.00 70 1017.3
20260504021153 54 259 0.0 0.0 0.00 0.00 0.00 68 1017.1
20260504020927 54 259 0.0 0.0 0.00 0.00 0.00 68 1017.1
20260504020420 54 259 0.0 0.0 0.00 0.00 0.00 67 1017.1
20260504020136 54 259 0.0 0.0 0.00 0.00 0.00 67 1017.1
20260504020019 54 259 0.0 0.0 0.00 0.00 0.00 67 1017.1
20260504015409 55 259 0.0 0.0 0.00 0.00 0.00 66 1017.0
20260504015126 55 259 0.0 0.0 0.00 0.00 0.00 66 1017.0
20260504014902 55 259 0.0 0.0 0.00 0.00 0.00 66 1017.0
20260504014357 55 259 0.0 0.0 0.00 0.00 0.00 65 1016.9
20260504014109 56 259 0.0 0.0 0.00 0.00 0.00 66 1016.9
20260504013956 56 259 0.0 0.0 0.00 0.00 0.00 66 1016.9
20260504013345 56 259 0.0 0.0 0.00 0.00 0.00 64 1016.8
20260504012839 56 259 0.0 0.0 0.00 0.00 0.00 65 1016.8
20260504012333 56 259 0.0 0.0 0.00 0.00 0.00 64 1016.8
20260504012059 57 259 0.0 0.0 0.00 0.00 0.00 64 1016.8
20260504011827 57 259 0.0 0.0 0.00 0.00 0.00 64 1016.8
20260504011322 57 259 0.0 0.0 0.00 0.00 0.00 63 1016.8
20260504010815 58 259 0.0 0.0 0.00 0.00 0.00 62 1016.8
20260504010309 58 259 0.0 1.0 0.00 0.00 0.00 62 1016.8
20260504010030 58 259 1.0 2.0 0.00 0.00 0.00 64 1016.7
20260504005802 58 259 1.0 2.0 0.00 0.00 0.00 64 1016.7
20260504005257 59 259 1.0 2.0 0.00 0.00 0.00 63 1016.6
20260504004855 59 259 0.0 2.0 0.00 0.00 0.00 62 1016.7
20260504004245 60 259 0.0 0.0 0.00 0.00 0.00 61 1016.6
20260504004108 60 259 0.0 1.0 0.00 0.00 0.00 61 1016.6
20260504004006 60 259 0.0 1.0 0.00 0.00 0.00 61 1016.6
20260504003505 60 97 0.0 2.0 0.00 0.00 0.00 61 1016.5
20260504003233 60 97 0.0 2.0 0.00 0.00 0.00 61 1016.5
20260504002733 61 229 1.0 2.0 0.00 0.00 0.00 61 1016.5
20260504002233 61 229 1.0 2.0 0.00 0.00 0.00 60 1016.5
20260504002059 62 229 1.0 2.0 0.00 0.00 0.00 58 1016.4
20260504001231 62 229 1.0 2.0 0.00 0.00 0.00 57 1016.4
20260504000729 63 229 1.0 2.0 0.00 0.00 0.00 56 1016.4
20260504000227 64 256 1.0 2.0 0.00 0.00 0.00 52 1016.5
20260503235727 64 256 0.0 2.0 0.00 0.00 0.00 50 1016.5
20260503235453 65 256 1.0 2.0 0.00 0.00 0.00 51 1016.5
20260503235226 65 256 1.0 2.0 0.00 0.00 0.00 51 1016.5
20260503234727 65 256 1.0 2.0 0.00 0.00 0.00 45 1016.4
20260503234448 66 256 1.0 2.0 0.00 0.00 0.00 46 1016.4
20260503234224 66 256 1.0 2.0 0.00 0.00 0.00 46 1016.4
20260503233723 66 343 1.0 2.0 0.00 0.00 0.00 44 1016.4
20260503233223 67 343 0.0 3.0 0.00 0.00 0.00 41 1016.5
20260503232723 67 286 0.0 3.0 0.00 0.00 0.00 41 1016.5
20260503232222 68 313 0.0 2.0 0.00 0.00 0.00 40 1016.4
20260503231723 68 295 0.0 0.0 0.00 0.00 0.00 40 1016.3
20260503231453 69 296 0.0 2.0 0.00 0.00 0.00 40 1016.3
20260503231223 69 296 0.0 2.0 0.00 0.00 0.00 40 1016.3
20260503230723 69 296 1.0 2.0 0.00 0.00 0.00 39 1016.4
20260503230223 69 21 1.0 4.0 0.00 0.00 0.00 37 1016.4
20260503225946 69 132 1.0 4.0 0.00 0.00 0.00 39 1016.5
20260503225828 69 132 1.0 4.0 0.00 0.00 0.00 39 1016.5
20260503225222 69 313 2.0 4.0 0.00 0.00 0.00 40 1016.6
20260503224722 69 317 2.0 4.0 0.00 0.00 0.00 40 1016.6
20260503224223 69 213 2.0 5.0 0.00 0.00 0.00 39 1016.6
20260503223722 69 17 1.0 5.0 0.00 0.00 0.00 38 1016.6
20260503223446 69 149 2.0 6.0 0.00 0.00 0.00 37 1016.6
20260503223222 69 149 2.0 6.0 0.00 0.00 0.00 37 1016.6
20260503222721 69 339 2.0 6.0 0.00 0.00 0.00 38 1016.8
20260503222221 69 51 2.0 5.0 0.00 0.00 0.00 37 1016.7
20260503221721 69 296 2.0 5.0 0.00 0.00 0.00 38 1016.8
20260503221450 69 15 3.0 6.0 0.00 0.00 0.00 37 1016.8
20260503221219 69 15 3.0 6.0 0.00 0.00 0.00 37 1016.8